PWSweather.com
Personal Weather Stations
Station Observations
KB2SBX
Sugarloaf, Sugarloaf, PA 18249

SugarloafSugarloaf, PA 18249

Lat: 41.0126685, Lon: -76.1082041

Elevation: 1030

Station Type: WS-2080

http://sugarloafpaweather.webng.com/weather.shtml

Latest ConditionsUpdated 8:35:05 AM EDT Friday, Oct 24, 2014
Currently Today's Max Today's Min Today's Average
Temperature 51.2°F10.7°C 51.4°F10.8°C 50.3°F10.2°C 50.9°F10.5°C
Dew Point 44.9°F7.2°C 46.1°F7.8°C 44.4°F6.9°C 45.5°F7.5°C
Winds 1.0 mph SSW1.6 kmh SSW 7.0 mph SSE11.3 kmh SSE - 2.8 mph 4.5 kmh
Wind Gusts 6.0 mph9.7 kmh 17.0 mph27.4 kmh - -
Humidity 79% 85% 79% 82%
Pressure 29.91 in1012.9 mb 29.91 in1012.9 mb 29.87 in1011.5 mb -
Hour Temp Dew Point Humidity Winds Wind Gusts Pressure Precip Precip Rate Daily Precip Total
08:35 AM 51.2°F10.7°C 44.9°F7.2°C 79% 1.0 mph SSW1.6 kmh SSW 6.0 mph9.7 kmh 29.91 in1012.9 mb 0.00 in0.0 mm 0.00 in/hr0.0 mm/hr 0.00 in0.0 mm
08:30 AM 50.9°F10.5°C 44.6°F7.0°C 79% 4.0 mph WSW6.4 kmh WSW 8.0 mph12.9 kmh 29.91 in1012.9 mb 0.00 in0.0 mm 0.00 in/hr0.0 mm/hr 0.00 in0.0 mm
08:25 AM 50.9°F10.5°C 44.6°F7.0°C 79% 1.0 mph SSW1.6 kmh SSW 6.0 mph9.7 kmh 29.91 in1012.9 mb 0.00 in0.0 mm 0.00 in/hr0.0 mm/hr 0.00 in0.0 mm
08:20 AM 50.9°F10.5°C 44.6°F7.0°C 79% 1.0 mph NNE1.6 kmh NNE 5.0 mph8.0 kmh 29.91 in1012.9 mb 0.00 in0.0 mm 0.00 in/hr0.0 mm/hr 0.00 in0.0 mm
08:15 AM 50.7°F10.4°C 44.4°F6.9°C 79% 2.0 mph WNW3.2 kmh WNW 8.0 mph12.9 kmh 29.91 in1012.9 mb 0.00 in0.0 mm 0.00 in/hr0.0 mm/hr 0.00 in0.0 mm
08:10 AM 50.9°F10.5°C 44.6°F7.0°C 79% Calm Calm 7.0 mph11.3 kmh 29.91 in1012.9 mb 0.00 in0.0 mm 0.00 in/hr0.0 mm/hr 0.00 in0.0 mm
08:05 AM 50.9°F10.5°C 44.6°F7.0°C 79% 4.0 mph NNE6.4 kmh NNE 9.0 mph14.5 kmh 29.91 in1012.9 mb 0.00 in0.0 mm 0.00 in/hr0.0 mm/hr 0.00 in0.0 mm
08:00 AM 51.0°F10.6°C 44.7°F7.1°C 79% 2.0 mph WNW3.2 kmh WNW 9.0 mph14.5 kmh 29.90 in1012.5 mb 0.00 in0.0 mm 0.00 in/hr0.0 mm/hr 0.00 in0.0 mm
07:55 AM 50.9°F10.5°C 44.9°F7.2°C 80% 2.0 mph WNW3.2 kmh WNW 8.0 mph12.9 kmh 29.90 in1012.5 mb 0.00 in0.0 mm 0.00 in/hr0.0 mm/hr 0.00 in0.0 mm
07:50 AM 50.9°F10.5°C 44.9°F7.2°C 80% 4.0 mph NNE6.4 kmh NNE 8.0 mph12.9 kmh 29.90 in1012.5 mb 0.00 in0.0 mm 0.00 in/hr0.0 mm/hr 0.00 in0.0 mm
07:45 AM 50.9°F10.5°C 44.9°F7.2°C 80% 1.0 mph WSW1.6 kmh WSW 4.0 mph6.4 kmh 29.91 in1012.9 mb 0.00 in0.0 mm 0.00 in/hr0.0 mm/hr 0.00 in0.0 mm
07:40 AM 50.9°F10.5°C 45.2°F7.3°C 81% 7.0 mph SSE11.3 kmh SSE 14.0 mph22.5 kmh 29.90 in1012.5 mb 0.00 in0.0 mm 0.00 in/hr0.0 mm/hr 0.00 in0.0 mm
07:35 AM 50.9°F10.5°C 45.2°F7.3°C 81% 2.0 mph NNW3.2 kmh NNW 7.0 mph11.3 kmh 29.90 in1012.5 mb 0.00 in0.0 mm 0.00 in/hr0.0 mm/hr 0.00 in0.0 mm
07:30 AM 50.7°F10.4°C 45.1°F7.3°C 81% 2.0 mph SSW3.2 kmh SSW 7.0 mph11.3 kmh 29.91 in1012.9 mb 0.00 in0.0 mm 0.00 in/hr0.0 mm/hr 0.00 in0.0 mm
07:25 AM 50.9°F10.5°C 45.2°F7.3°C 81% 2.0 mph SSW3.2 kmh SSW 6.0 mph9.7 kmh 29.90 in1012.5 mb 0.00 in0.0 mm 0.00 in/hr0.0 mm/hr 0.00 in0.0 mm
07:20 AM 51.0°F10.6°C 45.4°F7.4°C 81% 1.0 mph WNW1.6 kmh WNW 7.0 mph11.3 kmh 29.90 in1012.5 mb 0.00 in0.0 mm 0.00 in/hr0.0 mm/hr 0.00 in0.0 mm
07:15 AM 51.0°F10.6°C 45.4°F7.4°C 81% 3.0 mph WNW4.8 kmh WNW 14.0 mph22.5 kmh 29.90 in1012.5 mb 0.00 in0.0 mm 0.00 in/hr0.0 mm/hr 0.00 in0.0 mm
07:10 AM 51.0°F10.6°C 45.4°F7.4°C 81% 3.0 mph ESE4.8 kmh ESE 7.0 mph11.3 kmh 29.90 in1012.5 mb 0.00 in0.0 mm 0.00 in/hr0.0 mm/hr 0.00 in0.0 mm
07:05 AM 50.9°F10.5°C 45.2°F7.3°C 81% 2.0 mph WNW3.2 kmh WNW 7.0 mph11.3 kmh 29.90 in1012.5 mb 0.00 in0.0 mm 0.00 in/hr0.0 mm/hr 0.00 in0.0 mm
07:00 AM 50.9°F10.5°C 45.2°F7.3°C 81% 5.0 mph NNE8.0 kmh NNE 8.0 mph12.9 kmh 29.90 in1012.5 mb 0.00 in0.0 mm 0.00 in/hr0.0 mm/hr 0.00 in0.0 mm
06:55 AM 51.0°F10.6°C 45.4°F7.4°C 81% 3.0 mph NNW4.8 kmh NNW 5.0 mph8.0 kmh 29.90 in1012.5 mb 0.00 in0.0 mm 0.00 in/hr0.0 mm/hr 0.00 in0.0 mm
06:50 AM 51.0°F10.6°C 45.4°F7.4°C 81% 4.0 mph NNE6.4 kmh NNE 8.0 mph12.9 kmh 29.90 in1012.5 mb 0.00 in0.0 mm 0.00 in/hr0.0 mm/hr 0.00 in0.0 mm
06:45 AM 51.2°F10.7°C 45.3°F7.4°C 80% 4.0 mph NNE6.4 kmh NNE 6.0 mph9.7 kmh 29.90 in1012.5 mb 0.00 in0.0 mm 0.00 in/hr0.0 mm/hr 0.00 in0.0 mm
06:40 AM 51.2°F10.7°C 45.3°F7.4°C 80% 4.0 mph WSW6.4 kmh WSW 10.0 mph16.1 kmh 29.90 in1012.5 mb 0.00 in0.0 mm 0.00 in/hr0.0 mm/hr 0.00 in0.0 mm
06:35 AM 51.4°F10.8°C 45.4°F7.4°C 80% 5.0 mph SSE8.0 kmh SSE 8.0 mph12.9 kmh 29.89 in1012.2 mb 0.00 in0.0 mm 0.00 in/hr0.0 mm/hr 0.00 in0.0 mm
06:30 AM 51.2°F10.7°C 45.3°F7.4°C 80% 4.0 mph NNW6.4 kmh NNW 7.0 mph11.3 kmh 29.89 in1012.2 mb 0.00 in0.0 mm 0.00 in/hr0.0 mm/hr 0.00 in0.0 mm
06:25 AM 51.2°F10.7°C 45.3°F7.4°C 80% 1.0 mph WSW1.6 kmh WSW 7.0 mph11.3 kmh 29.89 in1012.2 mb 0.00 in0.0 mm 0.00 in/hr0.0 mm/hr 0.00 in0.0 mm
06:20 AM 51.2°F10.7°C 45.6°F7.6°C 81% 4.0 mph WSW6.4 kmh WSW 7.0 mph11.3 kmh 29.89 in1012.2 mb 0.00 in0.0 mm 0.00 in/hr0.0 mm/hr 0.00 in0.0 mm
06:15 AM 51.2°F10.7°C 45.6°F7.6°C 81% 2.0 mph NNW3.2 kmh NNW 7.0 mph11.3 kmh 29.89 in1012.2 mb 0.00 in0.0 mm 0.00 in/hr0.0 mm/hr 0.00 in0.0 mm
06:10 AM 51.2°F10.7°C 45.6°F7.6°C 81% 4.0 mph NNW6.4 kmh NNW 9.0 mph14.5 kmh 29.89 in1012.2 mb 0.00 in0.0 mm 0.00 in/hr0.0 mm/hr 0.00 in0.0 mm
06:05 AM 51.0°F10.6°C 45.4°F7.4°C 81% 1.0 mph WNW1.6 kmh WNW 2.0 mph3.2 kmh 29.89 in1012.2 mb 0.00 in0.0 mm 0.00 in/hr0.0 mm/hr 0.00 in0.0 mm
06:00 AM 51.0°F10.6°C 45.4°F7.4°C 81% 1.0 mph WNW1.6 kmh WNW 9.0 mph14.5 kmh 29.89 in1012.2 mb 0.00 in0.0 mm 0.00 in/hr0.0 mm/hr 0.00 in0.0 mm
05:55 AM 51.2°F10.7°C 45.6°F7.6°C 81% 4.0 mph NNE6.4 kmh NNE 6.0 mph9.7 kmh 29.89 in1012.2 mb 0.00 in0.0 mm 0.00 in/hr0.0 mm/hr 0.00 in0.0 mm
05:50 AM 51.2°F10.7°C 45.6°F7.6°C 81% 2.0 mph WNW3.2 kmh WNW 8.0 mph12.9 kmh 29.88 in1011.9 mb 0.00 in0.0 mm 0.00 in/hr0.0 mm/hr 0.00 in0.0 mm
05:45 AM 51.2°F10.7°C 45.6°F7.6°C 81% 7.0 mph NNE11.3 kmh NNE 13.0 mph20.9 kmh 29.89 in1012.2 mb 0.00 in0.0 mm 0.00 in/hr0.0 mm/hr 0.00 in0.0 mm
05:40 AM 51.2°F10.7°C 45.6°F7.6°C 81% 4.0 mph ESE6.4 kmh ESE 6.0 mph9.7 kmh 29.89 in1012.2 mb 0.00 in0.0 mm 0.00 in/hr0.0 mm/hr 0.00 in0.0 mm
05:35 AM 51.2°F10.7°C 45.6°F7.6°C 81% 3.0 mph NNW4.8 kmh NNW 11.0 mph17.7 kmh 29.88 in1011.9 mb 0.00 in0.0 mm 0.00 in/hr0.0 mm/hr 0.00 in0.0 mm
05:30 AM 51.2°F10.7°C 45.6°F7.6°C 81% 2.0 mph ENE3.2 kmh ENE 8.0 mph12.9 kmh 29.89 in1012.2 mb 0.00 in0.0 mm 0.00 in/hr0.0 mm/hr 0.00 in0.0 mm
05:25 AM 51.2°F10.7°C 45.6°F7.6°C 81% 6.0 mph WNW9.7 kmh WNW 7.0 mph11.3 kmh 29.89 in1012.2 mb 0.00 in0.0 mm 0.00 in/hr0.0 mm/hr 0.00 in0.0 mm
05:20 AM 51.2°F10.7°C 45.9°F7.7°C 82% 1.0 mph WSW1.6 kmh WSW 8.0 mph12.9 kmh 29.89 in1012.2 mb 0.00 in0.0 mm 0.00 in/hr0.0 mm/hr 0.00 in0.0 mm
05:15 AM 51.0°F10.6°C 45.7°F7.6°C 82% 2.0 mph NNE3.2 kmh NNE 14.0 mph22.5 kmh 29.89 in1012.2 mb 0.00 in0.0 mm 0.00 in/hr0.0 mm/hr 0.00 in0.0 mm
05:10 AM 50.9°F10.5°C 45.9°F7.7°C 83% 7.0 mph SSE11.3 kmh SSE 13.0 mph20.9 kmh 29.89 in1012.2 mb 0.00 in0.0 mm 0.00 in/hr0.0 mm/hr 0.00 in0.0 mm
05:05 AM 50.9°F10.5°C 45.9°F7.7°C 83% 3.0 mph WNW4.8 kmh WNW 4.0 mph6.4 kmh 29.90 in1012.5 mb 0.00 in0.0 mm 0.00 in/hr0.0 mm/hr 0.00 in0.0 mm
05:00 AM 50.7°F10.4°C 45.7°F7.6°C 83% 2.0 mph WNW3.2 kmh WNW 6.0 mph9.7 kmh 29.89 in1012.2 mb 0.00 in0.0 mm 0.00 in/hr0.0 mm/hr 0.00 in0.0 mm
04:55 AM 50.7°F10.4°C 46.0°F7.8°C 84% 2.0 mph SSE3.2 kmh SSE 11.0 mph17.7 kmh 29.89 in1012.2 mb 0.00 in0.0 mm 0.00 in/hr0.0 mm/hr 0.00 in0.0 mm
04:50 AM 50.5°F10.3°C 46.1°F7.8°C 85% 7.0 mph WSW11.3 kmh WSW 15.0 mph24.1 kmh 29.89 in1012.2 mb 0.00 in0.0 mm 0.00 in/hr0.0 mm/hr 0.00 in0.0 mm
04:45 AM 50.5°F10.3°C 46.1°F7.8°C 85% 2.0 mph SSE3.2 kmh SSE 17.0 mph27.4 kmh 29.89 in1012.2 mb 0.00 in0.0 mm 0.00 in/hr0.0 mm/hr 0.00 in0.0 mm
04:40 AM 50.3°F10.2°C 46.0°F7.8°C 85% 3.0 mph WSW4.8 kmh WSW 7.0 mph11.3 kmh 29.89 in1012.2 mb 0.00 in0.0 mm 0.00 in/hr0.0 mm/hr 0.00 in0.0 mm
04:35 AM 50.3°F10.2°C 46.0°F7.8°C 85% 2.0 mph NNE3.2 kmh NNE 4.0 mph6.4 kmh 29.89 in1012.2 mb 0.00 in0.0 mm 0.00 in/hr0.0 mm/hr 0.00 in0.0 mm
04:30 AM 50.3°F10.2°C 46.0°F7.8°C 85% 3.0 mph ENE4.8 kmh ENE 9.0 mph14.5 kmh 29.89 in1012.2 mb 0.00 in0.0 mm 0.00 in/hr0.0 mm/hr 0.00 in0.0 mm
04:25 AM 50.5°F10.3°C 46.1°F7.8°C 85% 3.0 mph SSE4.8 kmh SSE 8.0 mph12.9 kmh 29.89 in1012.2 mb 0.00 in0.0 mm 0.00 in/hr0.0 mm/hr 0.00 in0.0 mm
04:20 AM 50.5°F10.3°C 46.1°F7.8°C 85% 5.0 mph ESE8.0 kmh ESE 9.0 mph14.5 kmh 29.88 in1011.9 mb 0.00 in0.0 mm 0.00 in/hr0.0 mm/hr 0.00 in0.0 mm
04:15 AM 50.7°F10.4°C 46.0°F7.8°C 84% 2.0 mph WNW3.2 kmh WNW 5.0 mph8.0 kmh 29.89 in1012.2 mb 0.00 in0.0 mm 0.00 in/hr0.0 mm/hr 0.00 in0.0 mm
04:10 AM 50.7°F10.4°C 46.0°F7.8°C 84% 4.0 mph NNW6.4 kmh NNW 8.0 mph12.9 kmh 29.89 in1012.2 mb 0.00 in0.0 mm 0.00 in/hr0.0 mm/hr 0.00 in0.0 mm
04:05 AM 50.7°F10.4°C 45.7°F7.6°C 83% 2.0 mph SSW3.2 kmh SSW 4.0 mph6.4 kmh 29.89 in1012.2 mb 0.00 in0.0 mm 0.00 in/hr0.0 mm/hr 0.00 in0.0 mm
04:00 AM 50.7°F10.4°C 45.7°F7.6°C 83% 2.0 mph SSW3.2 kmh SSW 7.0 mph11.3 kmh 29.89 in1012.2 mb 0.00 in0.0 mm 0.00 in/hr0.0 mm/hr 0.00 in0.0 mm
03:55 AM 50.7°F10.4°C 45.7°F7.6°C 83% 2.0 mph NNW3.2 kmh NNW 4.0 mph6.4 kmh 29.89 in1012.2 mb 0.00 in0.0 mm 0.00 in/hr0.0 mm/hr 0.00 in0.0 mm
03:50 AM 50.7°F10.4°C 45.7°F7.6°C 83% Calm Calm 4.0 mph6.4 kmh 29.89 in1012.2 mb 0.00 in0.0 mm 0.00 in/hr0.0 mm/hr 0.00 in0.0 mm
03:45 AM 50.7°F10.4°C 45.7°F7.6°C 83% 2.0 mph SSE3.2 kmh SSE 4.0 mph6.4 kmh 29.89 in1012.2 mb 0.00 in0.0 mm 0.00 in/hr0.0 mm/hr 0.00 in0.0 mm
03:40 AM 50.7°F10.4°C 45.7°F7.6°C 83% 3.0 mph WNW4.8 kmh WNW 6.0 mph9.7 kmh 29.89 in1012.2 mb 0.00 in0.0 mm 0.00 in/hr0.0 mm/hr 0.00 in0.0 mm
03:35 AM 50.7°F10.4°C 45.7°F7.6°C 83% 1.0 mph SSW1.6 kmh SSW 5.0 mph8.0 kmh 29.88 in1011.9 mb 0.00 in0.0 mm 0.00 in/hr0.0 mm/hr 0.00 in0.0 mm
03:30 AM 50.7°F10.4°C 45.7°F7.6°C 83% 3.0 mph ESE4.8 kmh ESE 8.0 mph12.9 kmh 29.88 in1011.9 mb 0.00 in0.0 mm 0.00 in/hr0.0 mm/hr 0.00 in0.0 mm
03:25 AM 50.9°F10.5°C 45.9°F7.7°C 83% 3.0 mph ESE4.8 kmh ESE 7.0 mph11.3 kmh 29.88 in1011.9 mb 0.00 in0.0 mm 0.00 in/hr0.0 mm/hr 0.00 in0.0 mm
03:20 AM 51.0°F10.6°C 46.0°F7.8°C 83% 2.0 mph ENE3.2 kmh ENE 8.0 mph12.9 kmh 29.87 in1011.5 mb 0.00 in0.0 mm 0.00 in/hr0.0 mm/hr 0.00 in0.0 mm
03:15 AM 51.0°F10.6°C 45.7°F7.6°C 82% 2.0 mph ESE3.2 kmh ESE 8.0 mph12.9 kmh 29.87 in1011.5 mb 0.00 in0.0 mm 0.00 in/hr0.0 mm/hr 0.00 in0.0 mm
03:10 AM 51.2°F10.7°C 45.9°F7.7°C 82% 2.0 mph SSW3.2 kmh SSW 4.0 mph6.4 kmh 29.88 in1011.9 mb 0.00 in0.0 mm 0.00 in/hr0.0 mm/hr 0.00 in0.0 mm
03:05 AM 51.2°F10.7°C 45.9°F7.7°C 82% 1.0 mph WNW1.6 kmh WNW 5.0 mph8.0 kmh 29.88 in1011.9 mb 0.00 in0.0 mm 0.00 in/hr0.0 mm/hr 0.00 in0.0 mm
03:00 AM 51.0°F10.6°C 45.7°F7.6°C 82% 4.0 mph WSW6.4 kmh WSW 6.0 mph9.7 kmh 29.88 in1011.9 mb 0.00 in0.0 mm 0.00 in/hr0.0 mm/hr 0.00 in0.0 mm
02:55 AM 51.0°F10.6°C 45.7°F7.6°C 82% 5.0 mph WNW8.0 kmh WNW 7.0 mph11.3 kmh 29.87 in1011.5 mb 0.00 in0.0 mm 0.00 in/hr0.0 mm/hr 0.00 in0.0 mm
02:50 AM 51.0°F10.6°C 46.0°F7.8°C 83% 2.0 mph NNW3.2 kmh NNW 4.0 mph6.4 kmh 29.87 in1011.5 mb 0.00 in0.0 mm 0.00 in/hr0.0 mm/hr 0.00 in0.0 mm
02:45 AM 51.0°F10.6°C 46.0°F7.8°C 83% 2.0 mph ESE3.2 kmh ESE 4.0 mph6.4 kmh 29.88 in1011.9 mb 0.00 in0.0 mm 0.00 in/hr0.0 mm/hr 0.00 in0.0 mm
02:40 AM 51.0°F10.6°C 46.0°F7.8°C 83% 1.0 mph SSE1.6 kmh SSE 5.0 mph8.0 kmh 29.88 in1011.9 mb 0.00 in0.0 mm 0.00 in/hr0.0 mm/hr 0.00 in0.0 mm